sensor_id;sensor_type;location;lat;lon;timestamp;temperature;humidity
56538;DHT22;42435;53.292;6.000;2023-06-14T00:02:13;16.70;57.10
56538;DHT22;42435;53.292;6.000;2023-06-14T00:04:41;16.70;57.20
56538;DHT22;42435;53.292;6.000;2023-06-14T00:07:07;16.70;57.40
56538;DHT22;42435;53.292;6.000;2023-06-14T00:09:35;16.60;57.50
56538;DHT22;42435;53.292;6.000;2023-06-14T00:12:01;16.60;57.80
56538;DHT22;42435;53.292;6.000;2023-06-14T00:14:27;16.60;57.90
56538;DHT22;42435;53.292;6.000;2023-06-14T00:16:53;16.50;58.20
56538;DHT22;42435;53.292;6.000;2023-06-14T00:19:19;16.50;58.30
56538;DHT22;42435;53.292;6.000;2023-06-14T00:21:46;16.50;58.60
56538;DHT22;42435;53.292;6.000;2023-06-14T00:24:12;16.50;58.80
56538;DHT22;42435;53.292;6.000;2023-06-14T00:26:37;16.40;58.90
56538;DHT22;42435;53.292;6.000;2023-06-14T00:29:03;16.40;59.20
56538;DHT22;42435;53.292;6.000;2023-06-14T00:31:31;16.40;59.40
56538;DHT22;42435;53.292;6.000;2023-06-14T00:33:57;16.40;59.70
56538;DHT22;42435;53.292;6.000;2023-06-14T00:36:23;16.30;59.90
56538;DHT22;42435;53.292;6.000;2023-06-14T00:38:49;16.30;60.20
56538;DHT22;42435;53.292;6.000;2023-06-14T00:41:14;16.20;60.50
56538;DHT22;42435;53.292;6.000;2023-06-14T00:43:40;16.30;60.70
56538;DHT22;42435;53.292;6.000;2023-06-14T00:46:06;16.20;61.00
56538;DHT22;42435;53.292;6.000;2023-06-14T00:48:31;16.20;61.20
56538;DHT22;42435;53.292;6.000;2023-06-14T00:50:58;16.20;61.40
56538;DHT22;42435;53.292;6.000;2023-06-14T00:53:24;16.20;61.60
56538;DHT22;42435;53.292;6.000;2023-06-14T00:55:50;16.20;61.80
56538;DHT22;42435;53.292;6.000;2023-06-14T00:58:17;16.20;61.90
56538;DHT22;42435;53.292;6.000;2023-06-14T01:00:42;16.20;62.00
56538;DHT22;42435;53.292;6.000;2023-06-14T01:03:08;16.20;62.00
56538;DHT22;42435;53.292;6.000;2023-06-14T01:05:37;16.10;62.20
56538;DHT22;42435;53.292;6.000;2023-06-14T01:08:24;16.10;62.30
56538;DHT22;42435;53.292;6.000;2023-06-14T01:11:05;16.10;62.50
56538;DHT22;42435;53.292;6.000;2023-06-14T01:13:35;16.10;62.50
56538;DHT22;42435;53.292;6.000;2023-06-14T01:16:02;16.10;62.30
56538;DHT22;42435;53.292;6.000;2023-06-14T01:18:29;16.00;62.30
56538;DHT22;42435;53.292;6.000;2023-06-14T01:20:55;16.00;62.40
56538;DHT22;42435;53.292;6.000;2023-06-14T01:23:22;16.00;62.40
56538;DHT22;42435;53.292;6.000;2023-06-14T01:25:49;16.00;62.60
56538;DHT22;42435;53.292;6.000;2023-06-14T01:28:20;16.00;62.60
56538;DHT22;42435;53.292;6.000;2023-06-14T01:30:52;16.00;62.70
56538;DHT22;42435;53.292;6.000;2023-06-14T01:33:23;16.00;62.90
56538;DHT22;42435;53.292;6.000;2023-06-14T01:35:51;15.90;62.80
56538;DHT22;42435;53.292;6.000;2023-06-14T01:38:19;15.90;63.00
56538;DHT22;42435;53.292;6.000;2023-06-14T01:40:45;15.90;63.10
56538;DHT22;42435;53.292;6.000;2023-06-14T01:43:16;15.90;63.20
56538;DHT22;42435;53.292;6.000;2023-06-14T01:45:42;15.90;63.30
56538;DHT22;42435;53.292;6.000;2023-06-14T01:48:09;15.90;63.40
56538;DHT22;42435;53.292;6.000;2023-06-14T01:50:39;15.80;63.50
56538;DHT22;42435;53.292;6.000;2023-06-14T01:53:10;15.80;63.70
56538;DHT22;42435;53.292;6.000;2023-06-14T01:55:35;15.80;63.90
56538;DHT22;42435;53.292;6.000;2023-06-14T01:58:06;15.80;63.80
56538;DHT22;42435;53.292;6.000;2023-06-14T02:00:32;15.70;64.00
56538;DHT22;42435;53.292;6.000;2023-06-14T02:02:57;15.70;64.00
56538;DHT22;42435;53.292;6.000;2023-06-14T02:05:24;15.70;64.10
56538;DHT22;42435;53.292;6.000;2023-06-14T02:07:49;15.70;64.20
56538;DHT22;42435;53.292;6.000;2023-06-14T02:10:16;15.70;64.40
56538;DHT22;42435;53.292;6.000;2023-06-14T02:12:43;15.60;64.50
56538;DHT22;42435;53.292;6.000;2023-06-14T02:15:09;15.60;64.60
56538;DHT22;42435;53.292;6.000;2023-06-14T02:17:42;15.60;64.70
56538;DHT22;42435;53.292;6.000;2023-06-14T02:20:08;15.60;64.90
56538;DHT22;42435;53.292;6.000;2023-06-14T02:22:34;15.60;65.10
56538;DHT22;42435;53.292;6.000;2023-06-14T02:25:00;15.50;65.30
56538;DHT22;42435;53.292;6.000;2023-06-14T02:27:29;15.50;65.40
56538;DHT22;42435;53.292;6.000;2023-06-14T02:29:54;15.50;65.40
56538;DHT22;42435;53.292;6.000;2023-06-14T02:32:20;15.40;65.60
56538;DHT22;42435;53.292;6.000;2023-06-14T02:34:46;15.40;65.70
56538;DHT22;42435;53.292;6.000;2023-06-14T02:37:17;15.40;65.80
56538;DHT22;42435;53.292;6.000;2023-06-14T02:39:46;15.40;66.00
56538;DHT22;42435;53.292;6.000;2023-06-14T02:42:11;15.40;66.20
56538;DHT22;42435;53.292;6.000;2023-06-14T02:44:37;15.30;66.20
56538;DHT22;42435;53.292;6.000;2023-06-14T02:47:04;15.30;66.30
56538;DHT22;42435;53.292;6.000;2023-06-14T02:49:30;15.30;66.50
56538;DHT22;42435;53.292;6.000;2023-06-14T02:51:55;15.30;66.60
56538;DHT22;42435;53.292;6.000;2023-06-14T02:54:22;15.20;66.70
56538;DHT22;42435;53.292;6.000;2023-06-14T02:56:47;15.20;66.90
56538;DHT22;42435;53.292;6.000;2023-06-14T02:59:15;15.20;67.00
56538;DHT22;42435;53.292;6.000;2023-06-14T03:01:42;15.20;67.10
56538;DHT22;42435;53.292;6.000;2023-06-14T03:04:11;15.20;67.20
56538;DHT22;42435;53.292;6.000;2023-06-14T03:06:37;15.20;67.30
56538;DHT22;42435;53.292;6.000;2023-06-14T03:09:03;15.20;67.30
56538;DHT22;42435;53.292;6.000;2023-06-14T03:11:32;15.10;67.40
56538;DHT22;42435;53.292;6.000;2023-06-14T03:13:58;15.10;67.50
56538;DHT22;42435;53.292;6.000;2023-06-14T03:16:26;15.10;67.60
56538;DHT22;42435;53.292;6.000;2023-06-14T03:18:54;15.10;67.80
56538;DHT22;42435;53.292;6.000;2023-06-14T03:21:23;15.10;67.90
56538;DHT22;42435;53.292;6.000;2023-06-14T03:23:50;15.00;68.00
56538;DHT22;42435;53.292;6.000;2023-06-14T03:26:16;15.00;68.10
56538;DHT22;42435;53.292;6.000;2023-06-14T03:28:45;15.00;68.20
56538;DHT22;42435;53.292;6.000;2023-06-14T03:31:11;15.00;68.30
56538;DHT22;42435;53.292;6.000;2023-06-14T03:33:38;15.00;68.40
56538;DHT22;42435;53.292;6.000;2023-06-14T03:36:04;15.00;68.40
56538;DHT22;42435;53.292;6.000;2023-06-14T03:38:30;15.00;68.60
56538;DHT22;42435;53.292;6.000;2023-06-14T03:40:56;15.00;68.70
56538;DHT22;42435;53.292;6.000;2023-06-14T03:43:22;15.00;68.70
56538;DHT22;42435;53.292;6.000;2023-06-14T03:45:47;15.00;68.70
56538;DHT22;42435;53.292;6.000;2023-06-14T03:48:13;15.00;68.80
56538;DHT22;42435;53.292;6.000;2023-06-14T03:50:39;15.00;68.90
56538;DHT22;42435;53.292;6.000;2023-06-14T03:53:06;15.00;69.00
56538;DHT22;42435;53.292;6.000;2023-06-14T03:55:32;15.00;69.10
56538;DHT22;42435;53.292;6.000;2023-06-14T03:57:58;15.00;69.20
56538;DHT22;42435;53.292;6.000;2023-06-14T04:00:24;15.00;69.30
56538;DHT22;42435;53.292;6.000;2023-06-14T04:02:50;15.00;69.40
56538;DHT22;42435;53.292;6.000;2023-06-14T04:05:15;15.00;69.40
56538;DHT22;42435;53.292;6.000;2023-06-14T04:07:45;15.00;69.40
56538;DHT22;42435;53.292;6.000;2023-06-14T04:10:17;15.00;69.50
56538;DHT22;42435;53.292;6.000;2023-06-14T04:12:43;15.10;69.60
56538;DHT22;42435;53.292;6.000;2023-06-14T04:15:09;15.10;69.60
56538;DHT22;42435;53.292;6.000;2023-06-14T04:17:36;15.10;69.60
56538;DHT22;42435;53.292;6.000;2023-06-14T04:20:03;15.20;69.60
56538;DHT22;42435;53.292;6.000;2023-06-14T04:22:30;15.20;69.70
56538;DHT22;42435;53.292;6.000;2023-06-14T04:24:57;15.20;69.70
56538;DHT22;42435;53.292;6.000;2023-06-14T04:27:23;15.20;69.70
56538;DHT22;42435;53.292;6.000;2023-06-14T04:29:57;15.20;69.80
56538;DHT22;42435;53.292;6.000;2023-06-14T04:32:24;15.30;69.90
56538;DHT22;42435;53.292;6.000;2023-06-14T04:34:55;15.30;69.80
56538;DHT22;42435;53.292;6.000;2023-06-14T04:37:22;15.30;69.90
56538;DHT22;42435;53.292;6.000;2023-06-14T04:39:48;15.40;69.90
56538;DHT22;42435;53.292;6.000;2023-06-14T04:42:14;15.40;69.90
56538;DHT22;42435;53.292;6.000;2023-06-14T04:44:43;15.40;69.90
56538;DHT22;42435;53.292;6.000;2023-06-14T04:47:13;15.50;69.90
56538;DHT22;42435;53.292;6.000;2023-06-14T04:49:45;15.50;70.00
56538;DHT22;42435;53.292;6.000;2023-06-14T04:52:11;15.60;69.90
56538;DHT22;42435;53.292;6.000;2023-06-14T04:54:38;15.60;69.90
56538;DHT22;42435;53.292;6.000;2023-06-14T04:57:11;15.70;69.80
56538;DHT22;42435;53.292;6.000;2023-06-14T04:59:46;15.80;69.80
56538;DHT22;42435;53.292;6.000;2023-06-14T05:02:11;15.80;69.80
56538;DHT22;42435;53.292;6.000;2023-06-14T05:04:38;15.90;69.70
56538;DHT22;42435;53.292;6.000;2023-06-14T05:07:07;16.00;69.60
56538;DHT22;42435;53.292;6.000;2023-06-14T05:09:33;16.00;69.50
56538;DHT22;42435;53.292;6.000;2023-06-14T05:11:59;16.10;69.50
56538;DHT22;42435;53.292;6.000;2023-06-14T05:14:25;16.10;69.30
56538;DHT22;42435;53.292;6.000;2023-06-14T05:16:53;16.20;69.20
56538;DHT22;42435;53.292;6.000;2023-06-14T05:19:19;16.30;69.10
56538;DHT22;42435;53.292;6.000;2023-06-14T05:21:47;16.40;69.10
56538;DHT22;42435;53.292;6.000;2023-06-14T05:24:16;16.40;69.00
56538;DHT22;42435;53.292;6.000;2023-06-14T05:26:45;16.60;68.80
56538;DHT22;42435;53.292;6.000;2023-06-14T05:29:11;16.60;68.60
56538;DHT22;42435;53.292;6.000;2023-06-14T05:31:37;16.80;68.60
56538;DHT22;42435;53.292;6.000;2023-06-14T05:34:03;16.90;68.40
56538;DHT22;42435;53.292;6.000;2023-06-14T05:36:32;16.90;68.20
56538;DHT22;42435;53.292;6.000;2023-06-14T05:38:58;17.00;68.10
56538;DHT22;42435;53.292;6.000;2023-06-14T05:41:28;17.10;67.90
56538;DHT22;42435;53.292;6.000;2023-06-14T05:43:55;17.10;67.70
56538;DHT22;42435;53.292;6.000;2023-06-14T05:46:22;17.20;67.60
56538;DHT22;42435;53.292;6.000;2023-06-14T05:48:50;17.30;67.70
56538;DHT22;42435;53.292;6.000;2023-06-14T05:51:16;17.40;67.60
56538;DHT22;42435;53.292;6.000;2023-06-14T05:53:45;17.50;67.40
56538;DHT22;42435;53.292;6.000;2023-06-14T05:56:11;17.70;67.10
56538;DHT22;42435;53.292;6.000;2023-06-14T05:58:40;17.80;66.60
56538;DHT22;42435;53.292;6.000;2023-06-14T06:01:06;17.90;66.40
56538;DHT22;42435;53.292;6.000;2023-06-14T06:03:33;18.00;66.10
56538;DHT22;42435;53.292;6.000;2023-06-14T06:06:00;18.20;65.90
56538;DHT22;42435;53.292;6.000;2023-06-14T06:08:26;18.30;65.30
56538;DHT22;42435;53.292;6.000;2023-06-14T06:10:52;18.50;64.90
56538;DHT22;42435;53.292;6.000;2023-06-14T06:13:18;18.80;63.90
56538;DHT22;42435;53.292;6.000;2023-06-14T06:15:44;19.00;63.10
56538;DHT22;42435;53.292;6.000;2023-06-14T06:18:10;19.20;62.50
56538;DHT22;42435;53.292;6.000;2023-06-14T06:20:36;19.50;62.30
56538;DHT22;42435;53.292;6.000;2023-06-14T06:23:02;19.90;61.30
56538;DHT22;42435;53.292;6.000;2023-06-14T06:25:28;20.10;60.00
56538;DHT22;42435;53.292;6.000;2023-06-14T06:27:54;20.40;59.70
56538;DHT22;42435;53.292;6.000;2023-06-14T06:30:20;20.80;58.60
56538;DHT22;42435;53.292;6.000;2023-06-14T06:32:46;21.00;57.80
56538;DHT22;42435;53.292;6.000;2023-06-14T06:35:12;21.40;57.10
56538;DHT22;42435;53.292;6.000;2023-06-14T06:37:41;21.60;56.50
56538;DHT22;42435;53.292;6.000;2023-06-14T06:40:07;21.90;55.80
56538;DHT22;42435;53.292;6.000;2023-06-14T06:42:34;22.00;55.50
56538;DHT22;42435;53.292;6.000;2023-06-14T06:45:00;22.30;54.80
56538;DHT22;42435;53.292;6.000;2023-06-14T06:47:25;22.40;53.70
56538;DHT22;42435;53.292;6.000;2023-06-14T06:49:51;22.50;53.30
56538;DHT22;42435;53.292;6.000;2023-06-14T06:52:17;22.60;53.00
56538;DHT22;42435;53.292;6.000;2023-06-14T06:54:42;22.70;53.20
56538;DHT22;42435;53.292;6.000;2023-06-14T06:57:13;22.90;53.00
56538;DHT22;42435;53.292;6.000;2023-06-14T06:59:39;22.90;52.10
56538;DHT22;42435;53.292;6.000;2023-06-14T07:02:08;22.90;52.40
56538;DHT22;42435;53.292;6.000;2023-06-14T07:04:33;23.00;51.70
56538;DHT22;42435;53.292;6.000;2023-06-14T07:06:59;23.10;51.30
56538;DHT22;42435;53.292;6.000;2023-06-14T07:09:25;23.20;51.10
56538;DHT22;42435;53.292;6.000;2023-06-14T07:11:52;23.30;50.70
56538;DHT22;42435;53.292;6.000;2023-06-14T07:14:18;23.40;50.10
56538;DHT22;42435;53.292;6.000;2023-06-14T07:16:43;23.50;50.10
56538;DHT22;42435;53.292;6.000;2023-06-14T07:19:11;23.50;50.20
56538;DHT22;42435;53.292;6.000;2023-06-14T07:21:40;23.60;49.80
56538;DHT22;42435;53.292;6.000;2023-06-14T07:24:06;23.70;49.30
56538;DHT22;42435;53.292;6.000;2023-06-14T07:26:37;23.70;49.00
56538;DHT22;42435;53.292;6.000;2023-06-14T07:29:02;23.80;48.70
56538;DHT22;42435;53.292;6.000;2023-06-14T07:31:28;23.90;48.70
56538;DHT22;42435;53.292;6.000;2023-06-14T07:33:57;24.10;48.60
56538;DHT22;42435;53.292;6.000;2023-06-14T07:36:22;24.30;48.40
56538;DHT22;42435;53.292;6.000;2023-06-14T07:38:48;24.40;47.90
56538;DHT22;42435;53.292;6.000;2023-06-14T07:41:14;24.50;47.20
56538;DHT22;42435;53.292;6.000;2023-06-14T07:43:39;24.50;46.60
56538;DHT22;42435;53.292;6.000;2023-06-14T07:46:09;24.50;46.40
56538;DHT22;42435;53.292;6.000;2023-06-14T07:48:35;24.60;46.10
56538;DHT22;42435;53.292;6.000;2023-06-14T07:51:00;24.60;46.20
56538;DHT22;42435;53.292;6.000;2023-06-14T07:53:26;24.70;46.00
56538;DHT22;42435;53.292;6.000;2023-06-14T07:55:52;24.90;45.30
56538;DHT22;42435;53.292;6.000;2023-06-14T07:58:20;25.10;44.90
56538;DHT22;42435;53.292;6.000;2023-06-14T08:00:46;25.20;44.70
56538;DHT22;42435;53.292;6.000;2023-06-14T08:03:12;25.20;44.70
56538;DHT22;42435;53.292;6.000;2023-06-14T08:05:38;25.20;44.20
56538;DHT22;42435;53.292;6.000;2023-06-14T08:08:06;25.20;44.40
56538;DHT22;42435;53.292;6.000;2023-06-14T08:10:32;25.40;44.10
56538;DHT22;42435;53.292;6.000;2023-06-14T08:12:58;25.40;43.70
56538;DHT22;42435;53.292;6.000;2023-06-14T08:15:23;25.50;43.40
56538;DHT22;42435;53.292;6.000;2023-06-14T08:17:49;25.50;43.30
56538;DHT22;42435;53.292;6.000;2023-06-14T08:20:15;25.60;43.20
56538;DHT22;42435;53.292;6.000;2023-06-14T08:22:42;25.80;43.10
56538;DHT22;42435;53.292;6.000;2023-06-14T08:25:08;25.90;42.40
56538;DHT22;42435;53.292;6.000;2023-06-14T08:27:34;26.00;42.00
56538;DHT22;42435;53.292;6.000;2023-06-14T08:30:01;26.10;42.20
56538;DHT22;42435;53.292;6.000;2023-06-14T08:32:28;26.20;42.20
56538;DHT22;42435;53.292;6.000;2023-06-14T08:34:54;26.40;41.30
56538;DHT22;42435;53.292;6.000;2023-06-14T08:37:19;26.50;40.80
56538;DHT22;42435;53.292;6.000;2023-06-14T08:39:46;26.60;40.60
56538;DHT22;42435;53.292;6.000;2023-06-14T08:42:12;26.70;40.10
56538;DHT22;42435;53.292;6.000;2023-06-14T08:44:42;26.90;39.90
56538;DHT22;42435;53.292;6.000;2023-06-14T08:47:09;26.90;40.10
56538;DHT22;42435;53.292;6.000;2023-06-14T08:49:37;27.00;40.20
56538;DHT22;42435;53.292;6.000;2023-06-14T08:52:05;27.20;40.20
56538;DHT22;42435;53.292;6.000;2023-06-14T08:54:33;27.20;39.80
56538;DHT22;42435;53.292;6.000;2023-06-14T08:57:02;27.30;40.20
56538;DHT22;42435;53.292;6.000;2023-06-14T08:59:33;27.50;39.40
56538;DHT22;42435;53.292;6.000;2023-06-14T09:02:07;27.50;39.10
56538;DHT22;42435;53.292;6.000;2023-06-14T09:04:34;27.60;39.70
56538;DHT22;42435;53.292;6.000;2023-06-14T09:07:01;27.60;39.10
56538;DHT22;42435;53.292;6.000;2023-06-14T09:09:26;27.60;38.90
56538;DHT22;42435;53.292;6.000;2023-06-14T09:11:52;27.60;38.40
56538;DHT22;42435;53.292;6.000;2023-06-14T09:14:23;27.60;38.00
56538;DHT22;42435;53.292;6.000;2023-06-14T09:16:53;27.50;37.80
56538;DHT22;42435;53.292;6.000;2023-06-14T09:19:23;27.50;38.00
56538;DHT22;42435;53.292;6.000;2023-06-14T09:21:50;27.40;38.30
56538;DHT22;42435;53.292;6.000;2023-06-14T09:24:18;27.50;38.50
56538;DHT22;42435;53.292;6.000;2023-06-14T09:26:47;27.70;38.30
56538;DHT22;42435;53.292;6.000;2023-06-14T09:29:12;27.90;37.20
56538;DHT22;42435;53.292;6.000;2023-06-14T09:31:38;27.90;36.80
56538;DHT22;42435;53.292;6.000;2023-06-14T09:34:05;27.80;37.10
56538;DHT22;42435;53.292;6.000;2023-06-14T09:36:32;27.90;37.30
56538;DHT22;42435;53.292;6.000;2023-06-14T09:39:00;28.00;37.50
56538;DHT22;42435;53.292;6.000;2023-06-14T09:41:37;28.10;36.90
56538;DHT22;42435;53.292;6.000;2023-06-14T09:44:05;28.30;36.70
56538;DHT22;42435;53.292;6.000;2023-06-14T09:46:32;28.40;36.80
56538;DHT22;42435;53.292;6.000;2023-06-14T09:49:01;28.50;36.70
56538;DHT22;42435;53.292;6.000;2023-06-14T09:51:28;28.60;36.50
56538;DHT22;42435;53.292;6.000;2023-06-14T09:53:58;28.70;36.40
56538;DHT22;42435;53.292;6.000;2023-06-14T09:56:45;28.70;35.30
56538;DHT22;42435;53.292;6.000;2023-06-14T09:59:12;28.70;35.40
56538;DHT22;42435;53.292;6.000;2023-06-14T10:01:45;28.60;35.90
56538;DHT22;42435;53.292;6.000;2023-06-14T10:04:13;28.60;35.90
56538;DHT22;42435;53.292;6.000;2023-06-14T10:06:43;28.70;36.60
56538;DHT22;42435;53.292;6.000;2023-06-14T10:09:10;28.70;36.70
56538;DHT22;42435;53.292;6.000;2023-06-14T10:11:36;28.90;35.90
56538;DHT22;42435;53.292;6.000;2023-06-14T10:14:05;28.90;35.20
56538;DHT22;42435;53.292;6.000;2023-06-14T10:16:32;28.80;35.50
56538;DHT22;42435;53.292;6.000;2023-06-14T10:19:29;28.70;35.50
56538;DHT22;42435;53.292;6.000;2023-06-14T10:22:34;28.80;35.50
56538;DHT22;42435;53.292;6.000;2023-06-14T10:25:02;28.70;35.60
56538;DHT22;42435;53.292;6.000;2023-06-14T10:27:37;28.70;35.10
56538;DHT22;42435;53.292;6.000;2023-06-14T10:30:05;28.60;35.50
56538;DHT22;42435;53.292;6.000;2023-06-14T10:32:32;28.60;35.60
56538;DHT22;42435;53.292;6.000;2023-06-14T10:35:04;28.70;36.00
56538;DHT22;42435;53.292;6.000;2023-06-14T10:37:29;28.70;35.80
56538;DHT22;42435;53.292;6.000;2023-06-14T10:39:55;28.80;36.00
56538;DHT22;42435;53.292;6.000;2023-06-14T10:42:21;28.90;36.00
56538;DHT22;42435;53.292;6.000;2023-06-14T10:44:52;28.90;35.90
56538;DHT22;42435;53.292;6.000;2023-06-14T10:47:29;29.00;34.80
56538;DHT22;42435;53.292;6.000;2023-06-14T10:50:10;28.90;35.40
56538;DHT22;42435;53.292;6.000;2023-06-14T10:52:43;29.00;34.90
56538;DHT22;42435;53.292;6.000;2023-06-14T10:55:16;29.00;34.90
56538;DHT22;42435;53.292;6.000;2023-06-14T10:57:47;28.90;35.00
56538;DHT22;42435;53.292;6.000;2023-06-14T11:00:17;28.80;35.10
56538;DHT22;42435;53.292;6.000;2023-06-14T11:11:08;28.80;35.90
56538;DHT22;42435;53.292;6.000;2023-06-14T11:13:38;28.90;36.10
56538;DHT22;42435;53.292;6.000;2023-06-14T11:16:16;29.00;36.30
56538;DHT22;42435;53.292;6.000;2023-06-14T11:18:44;29.20;35.70
56538;DHT22;42435;53.292;6.000;2023-06-14T11:21:10;29.40;35.10
56538;DHT22;42435;53.292;6.000;2023-06-14T11:23:36;29.40;35.00
56538;DHT22;42435;53.292;6.000;2023-06-14T11:26:05;29.40;34.80
56538;DHT22;42435;53.292;6.000;2023-06-14T11:28:39;29.40;34.60
56538;DHT22;42435;53.292;6.000;2023-06-14T11:31:09;29.50;34.30
56538;DHT22;42435;53.292;6.000;2023-06-14T11:33:35;29.50;34.20
56538;DHT22;42435;53.292;6.000;2023-06-14T11:36:05;29.40;34.10
56538;DHT22;42435;53.292;6.000;2023-06-14T11:38:36;29.30;34.40
56538;DHT22;42435;53.292;6.000;2023-06-14T11:41:05;29.20;34.40
56538;DHT22;42435;53.292;6.000;2023-06-14T11:43:32;29.10;35.10
56538;DHT22;42435;53.292;6.000;2023-06-14T11:46:03;29.20;34.90
56538;DHT22;42435;53.292;6.000;2023-06-14T11:48:41;29.40;35.50
56538;DHT22;42435;53.292;6.000;2023-06-14T11:51:07;29.60;35.00
56538;DHT22;42435;53.292;6.000;2023-06-14T11:53:33;29.60;35.50
56538;DHT22;42435;53.292;6.000;2023-06-14T11:55:59;29.50;36.50
56538;DHT22;42435;53.292;6.000;2023-06-14T11:58:29;29.50;37.60
56538;DHT22;42435;53.292;6.000;2023-06-14T12:00:57;29.60;37.90
56538;DHT22;42435;53.292;6.000;2023-06-14T12:03:32;29.60;38.10
56538;DHT22;42435;53.292;6.000;2023-06-14T12:06:08;29.40;38.00
56538;DHT22;42435;53.292;6.000;2023-06-14T12:08:37;29.30;39.00
56538;DHT22;42435;53.292;6.000;2023-06-14T12:11:10;29.10;40.00
56538;DHT22;42435;53.292;6.000;2023-06-14T12:13:41;28.90;40.70
56538;DHT22;42435;53.292;6.000;2023-06-14T12:16:11;28.90;41.50
56538;DHT22;42435;53.292;6.000;2023-06-14T12:18:37;28.70;42.30
56538;DHT22;42435;53.292;6.000;2023-06-14T12:21:07;28.50;42.00
56538;DHT22;42435;53.292;6.000;2023-06-14T12:26:12;27.90;44.10
56538;DHT22;42435;53.292;6.000;2023-06-14T12:28:40;27.60;44.50
56538;DHT22;42435;53.292;6.000;2023-06-14T12:31:08;27.50;44.90
56538;DHT22;42435;53.292;6.000;2023-06-14T12:33:34;27.30;45.10
56538;DHT22;42435;53.292;6.000;2023-06-14T12:36:00;27.20;45.50
56538;DHT22;42435;53.292;6.000;2023-06-14T12:38:28;27.10;45.80
56538;DHT22;42435;53.292;6.000;2023-06-14T12:40:54;27.10;45.80
56538;DHT22;42435;53.292;6.000;2023-06-14T12:43:20;27.20;45.90
56538;DHT22;42435;53.292;6.000;2023-06-14T12:45:46;27.30;45.70
56538;DHT22;42435;53.292;6.000;2023-06-14T12:48:15;27.40;45.30
56538;DHT22;42435;53.292;6.000;2023-06-14T12:50:41;27.40;45.10
56538;DHT22;42435;53.292;6.000;2023-06-14T12:53:08;27.40;44.80
56538;DHT22;42435;53.292;6.000;2023-06-14T12:55:33;27.50;44.90
56538;DHT22;42435;53.292;6.000;2023-06-14T12:57:59;27.50;44.60
56538;DHT22;42435;53.292;6.000;2023-06-14T13:00:25;27.50;44.40
56538;DHT22;42435;53.292;6.000;2023-06-14T13:02:56;27.60;44.40
56538;DHT22;42435;53.292;6.000;2023-06-14T13:05:22;27.80;44.10
56538;DHT22;42435;53.292;6.000;2023-06-14T13:07:48;27.80;43.60
56538;DHT22;42435;53.292;6.000;2023-06-14T13:10:14;27.80;43.90
56538;DHT22;42435;53.292;6.000;2023-06-14T13:12:39;27.80;44.00
56538;DHT22;42435;53.292;6.000;2023-06-14T13:15:06;27.80;44.50
56538;DHT22;42435;53.292;6.000;2023-06-14T13:17:35;27.80;45.20
56538;DHT22;42435;53.292;6.000;2023-06-14T13:20:05;27.90;44.80
56538;DHT22;42435;53.292;6.000;2023-06-14T13:22:33;27.90;44.70
56538;DHT22;42435;53.292;6.000;2023-06-14T13:24:58;28.00;44.80
56538;DHT22;42435;53.292;6.000;2023-06-14T13:27:26;28.10;44.10
56538;DHT22;42435;53.292;6.000;2023-06-14T13:29:51;27.90;44.30
56538;DHT22;42435;53.292;6.000;2023-06-14T13:32:17;27.70;44.90
56538;DHT22;42435;53.292;6.000;2023-06-14T13:34:47;27.60;45.00
56538;DHT22;42435;53.292;6.000;2023-06-14T13:37:13;27.60;44.60
56538;DHT22;42435;53.292;6.000;2023-06-14T13:39:39;27.40;45.00
56538;DHT22;42435;53.292;6.000;2023-06-14T13:42:05;27.30;45.30
56538;DHT22;42435;53.292;6.000;2023-06-14T13:44:31;27.20;45.70
56538;DHT22;42435;53.292;6.000;2023-06-14T13:46:56;27.10;46.20
56538;DHT22;42435;53.292;6.000;2023-06-14T13:49:22;27.10;46.70
56538;DHT22;42435;53.292;6.000;2023-06-14T13:51:48;27.10;46.40
56538;DHT22;42435;53.292;6.000;2023-06-14T13:54:14;27.20;46.30
56538;DHT22;42435;53.292;6.000;2023-06-14T13:56:41;27.10;46.10
56538;DHT22;42435;53.292;6.000;2023-06-14T13:59:07;27.20;46.40
56538;DHT22;42435;53.292;6.000;2023-06-14T14:01:35;27.30;46.50
56538;DHT22;42435;53.292;6.000;2023-06-14T14:04:00;27.40;46.20
56538;DHT22;42435;53.292;6.000;2023-06-14T14:06:26;27.40;46.20
56538;DHT22;42435;53.292;6.000;2023-06-14T14:08:54;27.40;46.00
56538;DHT22;42435;53.292;6.000;2023-06-14T14:11:19;27.30;45.70
56538;DHT22;42435;53.292;6.000;2023-06-14T14:13:46;27.00;46.00
56538;DHT22;42435;53.292;6.000;2023-06-14T14:16:13;26.90;46.40
56538;DHT22;42435;53.292;6.000;2023-06-14T14:18:39;26.70;46.60
56538;DHT22;42435;53.292;6.000;2023-06-14T14:21:05;26.60;47.00
56538;DHT22;42435;53.292;6.000;2023-06-14T14:23:31;26.60;47.10
56538;DHT22;42435;53.292;6.000;2023-06-14T14:25:57;26.60;47.10
56538;DHT22;42435;53.292;6.000;2023-06-14T14:28:23;26.60;47.50
56538;DHT22;42435;53.292;6.000;2023-06-14T14:30:48;26.70;47.00
56538;DHT22;42435;53.292;6.000;2023-06-14T14:33:15;26.60;46.70
56538;DHT22;42435;53.292;6.000;2023-06-14T14:35:47;26.50;46.90
56538;DHT22;42435;53.292;6.000;2023-06-14T14:38:13;26.50;46.90
56538;DHT22;42435;53.292;6.000;2023-06-14T14:40:39;26.50;46.90
56538;DHT22;42435;53.292;6.000;2023-06-14T14:43:08;26.50;46.60
56538;DHT22;42435;53.292;6.000;2023-06-14T14:45:35;26.40;46.70
56538;DHT22;42435;53.292;6.000;2023-06-14T14:48:01;26.40;47.00
56538;DHT22;42435;53.292;6.000;2023-06-14T14:50:29;26.40;46.80
56538;DHT22;42435;53.292;6.000;2023-06-14T14:52:55;26.40;46.70
56538;DHT22;42435;53.292;6.000;2023-06-14T14:55:22;26.30;46.30
56538;DHT22;42435;53.292;6.000;2023-06-14T14:57:49;26.30;46.20
56538;DHT22;42435;53.292;6.000;2023-06-14T15:00:17;26.20;46.30
56538;DHT22;42435;53.292;6.000;2023-06-14T15:02:42;26.20;46.80
56538;DHT22;42435;53.292;6.000;2023-06-14T15:05:11;26.20;46.80
56538;DHT22;42435;53.292;6.000;2023-06-14T15:07:36;26.20;46.70
56538;DHT22;42435;53.292;6.000;2023-06-14T15:10:02;26.20;46.70
56538;DHT22;42435;53.292;6.000;2023-06-14T15:12:29;26.20;46.70
56538;DHT22;42435;53.292;6.000;2023-06-14T15:14:56;26.20;46.70
56538;DHT22;42435;53.292;6.000;2023-06-14T15:17:22;26.10;46.70
56538;DHT22;42435;53.292;6.000;2023-06-14T15:19:50;26.00;46.60
56538;DHT22;42435;53.292;6.000;2023-06-14T15:22:16;25.90;47.20
56538;DHT22;42435;53.292;6.000;2023-06-14T15:24:42;25.90;47.20
56538;DHT22;42435;53.292;6.000;2023-06-14T15:27:08;25.90;47.10
56538;DHT22;42435;53.292;6.000;2023-06-14T15:29:34;25.90;46.90
56538;DHT22;42435;53.292;6.000;2023-06-14T15:32:03;25.80;46.80
56538;DHT22;42435;53.292;6.000;2023-06-14T15:34:31;25.70;47.00
56538;DHT22;42435;53.292;6.000;2023-06-14T15:36:56;25.60;47.30
56538;DHT22;42435;53.292;6.000;2023-06-14T15:39:22;25.60;47.00
56538;DHT22;42435;53.292;6.000;2023-06-14T15:41:49;25.60;46.90
56538;DHT22;42435;53.292;6.000;2023-06-14T15:44:16;25.60;46.80